Weather reports worldwide

Advertisment
Sheffield, United Kingdom (99107): temperature & dewpoint: 18.06.2017 04:00:00 - 24.06.2017 04:00:00 (BST)Sheffield, United Kingdom (99107): temperature 5cm: 18.06.2017 04:00:00 - 24.06.2017 04:00:00 (BST)Sheffield, United Kingdom (99107): visibility: 18.06.2017 04:00:00 - 24.06.2017 04:00:00 (BST)Sheffield, United Kingdom (99107): sunshine duration: 18.06.2017 04:00:00 - 24.06.2017 04:00:00 (BST)Sheffield, United Kingdom (99107): precipitation: 18.06.2017 04:00:00 - 24.06.2017 04:00:00 (BST)
Date & Time tt [°C] td [°C] tt 5cm [°C] vv [km] sd [min] rr [mm]
24.06.2017 04:00:00 14,0 11,2 - - 0 0,0
24.06.2017 03:00:00 15,5 13,4 - - 0 0,0
24.06.2017 02:00:00 16,3 13,8 - - 0 0,0
24.06.2017 01:00:00 16,3 14,0 - - - 0,0
24.06.2017 00:00:00 16,6 13,6 - - 0 0,0
23.06.2017 23:00:00 17,0 13,5 - - 0 0,0
23.06.2017 22:00:00 17,0 13,4 - 10 0 0,0
23.06.2017 21:00:00 17,4 13,4 - - 0 0,0
23.06.2017 20:00:00 18,0 13,3 - - 0 0,0
23.06.2017 19:00:00 19,1 13,5 - - 6 0,0
23.06.2017 18:00:00 18,9 13,5 - - 0 0,0
23.06.2017 17:00:00 18,6 13,2 - - 0 0,0
23.06.2017 16:00:00 18,9 13,3 - - 24 0,0
23.06.2017 15:00:00 19,2 14,2 - - 0 0,0
23.06.2017 14:00:00 18,0 13,2 - - 0 0,0
23.06.2017 13:00:00 17,4 13,1 - - 0 0,0
23.06.2017 12:00:00 17,1 12,6 - - 0 0,0
23.06.2017 11:00:00 16,7 12,6 - - 0 0,0
23.06.2017 10:00:00 16,2 12,0 - - 0 0,0
23.06.2017 09:00:00 16,1 11,5 - - 0 0,0
23.06.2017 08:00:00 15,4 11,1 - - 0 0,0
23.06.2017 07:00:00 14,6 10,8 - - 0 0,0
23.06.2017 06:00:00 14,3 10,8 - - 0 0,0
23.06.2017 05:00:00 14,0 10,7 - - 0 0,0
23.06.2017 04:00:00 14,3 10,3 - - 0 0,0
23.06.2017 03:00:00 14,6 10,5 - - 0 0,0
23.06.2017 02:00:00 14,6 10,9 - - 0 0,0
23.06.2017 01:00:00 14,7 11,0 - - - 0,0
23.06.2017 00:00:00 14,5 10,7 - - 0 0,0
22.06.2017 23:00:00 14,9 10,3 - - 0 0,0
22.06.2017 22:00:00 15,1 10,2 - 10 0 0,0
22.06.2017 21:00:00 15,7 10,5 - - 0 0,0
22.06.2017 20:00:00 16,5 9,8 - - 30 0,0
22.06.2017 19:00:00 17,5 10,6 - - 18 0,0
22.06.2017 18:00:00 17,3 10,5 - - 54 0,0
22.06.2017 17:00:00 18,5 11,4 - - 54 0,0
22.06.2017 16:00:00 18,1 11,9 - - 12 0,0
22.06.2017 15:00:00 17,7 13,9 - - - 0,0
22.06.2017 14:00:00 16,0 14,7 - - - 0,8
22.06.2017 13:00:00 17,5 13,3 - - 0 0,0
22.06.2017 12:00:00 - - - - 0 0,0
22.06.2017 11:00:00 18,6 14,0 - - 24 0,0
22.06.2017 10:00:00 19,3 14,2 - - 42 0,0
22.06.2017 09:00:00 17,9 13,7 - - 12 0,0
22.06.2017 08:00:00 18,5 14,1 - - 6 0,0
22.06.2017 07:00:00 17,7 14,4 - - 0 0,0
22.06.2017 06:00:00 17,8 15,3 - - 0 0,0
22.06.2017 05:00:00 19,5 16,1 - - 0 0,0
22.06.2017 04:00:00 19,8 16,3 - - 0 0,0
22.06.2017 03:00:00 19,9 17,7 - - 0 0,0
22.06.2017 02:00:00 21,1 18,9 - - 0 0,2
22.06.2017 01:00:00 22,3 19,6 - - - 0,0
22.06.2017 00:00:00 21,3 19,6 - - 0 0,0
21.06.2017 23:00:00 22,3 19,8 - - 0 0,0
21.06.2017 22:00:00 23,5 20,2 - - 0 0,0
21.06.2017 21:00:00 23,8 20,3 - - 0 0,0
21.06.2017 20:00:00 25,2 19,4 - - 6 0,0
21.06.2017 19:00:00 26,2 19,6 - - 30 0,0
21.06.2017 18:00:00 25,3 18,6 - - 6 0,0
21.06.2017 17:00:00 24,9 18,4 - - 6 0,0
21.06.2017 16:00:00 27,0 16,7 - - 30 0,0
21.06.2017 15:00:00 27,0 17,3 - - 24 0,0
21.06.2017 14:00:00 24,9 18,0 - - 6 0,0
21.06.2017 13:00:00 24,1 16,9 - - 12 0,0
21.06.2017 12:00:00 22,3 16,5 - - 12 0,0
21.06.2017 11:00:00 21,1 15,4 - - 36 0,0
21.06.2017 10:00:00 19,5 14,5 19,7 - 54 0,0
21.06.2017 09:00:00 17,4 13,5 - - 54 0,0
21.06.2017 08:00:00 16,4 12,5 - - 60 0,0
21.06.2017 07:00:00 14,7 11,8 - - 18 0,0
21.06.2017 06:00:00 13,8 11,4 - - 0 0,0
21.06.2017 05:00:00 13,4 11,0 - - 0 0,0
21.06.2017 04:00:00 14,0 11,1 - - 0 0,0
21.06.2017 03:00:00 14,4 11,3 - - 0 0,0
21.06.2017 02:00:00 14,6 12,1 - - 0 0,0
21.06.2017 01:00:00 14,5 12,4 - - - 0,0
21.06.2017 00:00:00 15,0 12,8 - - 0 0,0
20.06.2017 23:00:00 15,4 13,5 - - 0 0,0
20.06.2017 22:00:00 15,6 13,8 - - 0 0,0
20.06.2017 21:00:00 16,1 14,2 - - 0 0,0
20.06.2017 20:00:00 17,2 14,6 - - 0 0,0
20.06.2017 19:00:00 17,7 14,6 - - 0 0,0
20.06.2017 18:00:00 18,4 14,6 - - 0 0,0
20.06.2017 17:00:00 18,8 14,5 - - 0 0,0
20.06.2017 16:00:00 18,3 14,6 - - 0 0,0
20.06.2017 15:00:00 17,8 14,5 - - 0 0,0
20.06.2017 14:00:00 17,7 14,4 - - 0 0,0
20.06.2017 13:00:00 17,6 14,3 - - 0 0,0
20.06.2017 12:00:00 18,0 14,3 - - 0 0,0
20.06.2017 11:00:00 17,8 14,1 - - 0 0,0
20.06.2017 10:00:00 17,3 13,9 23,1 - 0 0,0
20.06.2017 09:00:00 17,1 14,2 - - 0 0,0
20.06.2017 08:00:00 16,5 14,4 - - 0 0,0
20.06.2017 07:00:00 16,3 14,3 - - 0 0,0
20.06.2017 06:00:00 16,1 14,1 - - 0 0,0
20.06.2017 05:00:00 16,2 13,6 - - 0 0,0
20.06.2017 04:00:00 17,0 13,5 - - 0 0,0
20.06.2017 03:00:00 18,2 13,9 - - 0 0,0
20.06.2017 02:00:00 19,1 14,5 - - 0 0,0
20.06.2017 01:00:00 20,8 14,3 - - - 0,0
20.06.2017 00:00:00 21,5 14,4 - - 0 0,0
19.06.2017 23:00:00 21,8 14,0 - - 0 0,0
19.06.2017 22:00:00 23,1 14,6 - - 0 0,0
19.06.2017 21:00:00 24,5 15,6 - - 0 0,0
19.06.2017 20:00:00 26,1 16,1 - - 30 0,0
19.06.2017 19:00:00 27,6 15,4 - - 36 0,0
19.06.2017 18:00:00 28,9 14,4 - - 42 0,0
19.06.2017 17:00:00 28,8 13,9 - - 54 0,0
19.06.2017 16:00:00 29,5 13,9 - - 60 0,0
19.06.2017 15:00:00 29,4 14,4 - - 54 0,0
19.06.2017 14:00:00 29,5 15,1 - - 54 0,0
19.06.2017 13:00:00 28,6 14,8 - - 54 0,0
19.06.2017 12:00:00 27,9 14,4 - - 54 0,0
19.06.2017 11:00:00 27,1 16,4 - - 60 0,0
19.06.2017 10:00:00 26,0 15,3 26,0 - 60 0,0
19.06.2017 09:00:00 23,9 14,8 - - 60 0,0
19.06.2017 08:00:00 22,4 16,1 - - 60 0,0
19.06.2017 07:00:00 19,7 15,7 - - 60 0,0
19.06.2017 06:00:00 16,8 14,9 - - 30 0,0
19.06.2017 05:00:00 16,2 14,3 - - 0 0,0
19.06.2017 04:00:00 16,7 14,4 - - 0 0,0
19.06.2017 03:00:00 17,3 14,4 - - 0 0,0
19.06.2017 02:00:00 18,0 14,4 - - 0 0,0
19.06.2017 01:00:00 19,0 14,3 - - - 0,0
19.06.2017 00:00:00 20,1 14,7 - - 0 0,0
18.06.2017 23:00:00 21,7 15,1 - - 0 0,0
18.06.2017 22:00:00 22,8 15,2 - - 6 0,0
18.06.2017 21:00:00 24,8 14,8 - - 60 0,0
18.06.2017 20:00:00 26,9 13,3 - - 60 0,0
18.06.2017 19:00:00 27,8 14,5 - - 36 0,0
18.06.2017 18:00:00 29,0 13,7 - - 60 0,0
18.06.2017 17:00:00 28,1 14,1 - - 48 0,0
18.06.2017 16:00:00 29,1 14,3 - - 54 0,0
18.06.2017 15:00:00 28,5 14,1 - - 60 0,0
18.06.2017 14:00:00 28,3 14,5 - - 60 0,0
18.06.2017 13:00:00 28,1 15,0 - - 60 0,0
18.06.2017 12:00:00 26,7 15,5 - - 60 0,0
18.06.2017 11:00:00 25,8 14,6 - - 60 0,0
18.06.2017 10:00:00 24,3 16,2 24,3 - 60 0,0
18.06.2017 09:00:00 22,8 13,9 - - 60 0,0
18.06.2017 08:00:00 21,0 14,4 - - 60 0,0
18.06.2017 07:00:00 18,3 14,2 - - 60 0,0
18.06.2017 06:00:00 15,1 13,1 - - 42 0,0
18.06.2017 05:00:00 14,7 13,0 - - 0 0,0
18.06.2017 04:00:00 15,3 13,3 - - 0 0,0

tt = temperature
td = dewpoint
tt 5cm = temperature 5cm
vv = visibility
sd = sunshine duration
rr = precipitation

Next stations